createdAt,value
2019-06-26T00:00:18.453Z,74.40
2019-06-26T00:01:18.029Z,73.70
2019-06-26T00:02:18.073Z,73.94
2019-06-26T00:03:17.978Z,74.24
2019-06-26T00:04:17.958Z,73.60
2019-06-26T00:05:17.978Z,74.44
2019-06-26T00:06:17.917Z,74.94
2019-06-26T00:07:17.891Z,74.64
2019-06-26T00:08:17.873Z,74.74
2019-06-26T00:09:17.887Z,74.84
2019-06-26T00:10:17.865Z,74.64
2019-06-26T00:11:17.797Z,74.74
2019-06-26T00:12:17.835Z,74.84
2019-06-26T00:13:25.968Z,75.14
2019-06-26T00:14:17.726Z,75.04
2019-06-26T00:15:17.713Z,75.54
2019-06-26T00:16:17.686Z,75.45
2019-06-26T00:17:17.748Z,75.45
2019-06-26T00:18:17.638Z,75.14
2019-06-26T00:19:17.621Z,75.64
2019-06-26T00:20:17.591Z,76.15
2019-06-26T00:21:17.622Z,75.95
2019-06-26T00:22:17.543Z,76.04
2019-06-26T00:23:17.518Z,75.95
2019-06-26T00:24:17.514Z,76.25
2019-06-26T00:25:17.495Z,76.45
2019-06-26T00:26:17.501Z,75.74
2019-06-26T00:27:17.438Z,75.74
2019-06-26T00:28:17.413Z,76.08
2019-06-26T00:29:17.383Z,76.28
2019-06-26T00:30:17.424Z,76.28
2019-06-26T00:31:17.338Z,76.68
2019-06-26T00:32:17.347Z,76.58
2019-06-26T00:33:17.298Z,76.89
2019-06-26T00:34:17.273Z,76.68
2019-06-26T00:35:17.299Z,76.48
2019-06-26T00:36:17.232Z,76.28
2019-06-26T00:37:17.199Z,76.68
2019-06-26T00:38:17.175Z,76.68
2019-06-26T00:39:17.198Z,76.58
2019-06-26T00:40:17.141Z,76.98
2019-06-26T00:41:17.152Z,77.09
2019-06-26T00:42:17.085Z,76.58
2019-06-26T00:43:17.067Z,76.68
2019-06-26T00:44:17.083Z,76.58
2019-06-26T00:45:17.024Z,76.48
2019-06-26T00:46:17.001Z,76.78
2019-06-26T00:47:17.940Z,77.09
2019-06-26T00:48:16.945Z,77.09
2019-06-26T00:49:16.971Z,77.28
2019-06-26T00:50:16.902Z,77.39
2019-06-26T00:51:16.879Z,77.48
2019-06-26T00:52:16.857Z,77.28
2019-06-26T00:53:16.834Z,77.28
2019-06-26T00:54:16.856Z,77.12
2019-06-26T00:55:16.786Z,77.39
2019-06-26T00:56:16.802Z,77.39
2019-06-26T00:57:16.751Z,77.62
2019-06-26T00:58:16.718Z,77.52
2019-06-26T00:59:16.774Z,77.42
2019-06-26T01:00:16.673Z,77.19
2019-06-26T01:01:16.641Z,77.59
2019-06-26T01:02:16.632Z,77.79
2019-06-26T01:03:16.597Z,77.89
2019-06-26T01:04:16.642Z,77.48
2019-06-26T01:05:16.556Z,77.79
2019-06-26T01:06:16.669Z,77.52
2019-06-26T01:07:16.509Z,77.39
2019-06-26T01:08:16.487Z,77.42
2019-06-26T01:09:16.512Z,77.83
2019-06-26T01:10:16.439Z,77.59
2019-06-26T01:11:16.458Z,77.62
2019-06-26T01:12:16.401Z,77.59
2019-06-26T01:13:16.368Z,78.22
2019-06-26T01:14:16.352Z,78.03
2019-06-26T01:15:16.382Z,78.22
2019-06-26T01:16:16.302Z,78.42
2019-06-26T01:17:16.279Z,78.42
2019-06-26T01:18:16.302Z,78.53
2019-06-26T01:19:16.242Z,78.22
2019-06-26T01:20:16.206Z,78.33
2019-06-26T01:21:16.239Z,78.22
2019-06-26T01:22:16.163Z,78.22
2019-06-26T01:23:16.134Z,78.22
2019-06-26T01:24:16.131Z,78.27
2019-06-26T01:25:16.090Z,78.13
2019-06-26T01:26:16.113Z,78.53
2019-06-26T01:27:16.099Z,78.13
2019-06-26T01:28:16.066Z,78.13
2019-06-26T01:29:16.001Z,78.03
2019-06-26T01:30:15.977Z,78.06
2019-06-26T01:31:15.983Z,77.96
2019-06-26T01:32:15.932Z,79.47
2019-06-26T01:33:15.944Z,79.17
2019-06-26T01:34:15.883Z,79.17
2019-06-26T01:35:15.856Z,79.67
2019-06-26T01:36:15.834Z,79.27
2019-06-26T01:37:15.853Z,79.53
2019-06-26T01:38:15.787Z,79.47
2019-06-26T01:39:15.817Z,79.47
2019-06-26T01:40:15.742Z,79.77
2019-06-26T01:41:15.719Z,79.57
2019-06-26T01:42:15.695Z,79.67
2019-06-26T01:43:15.715Z,79.67
2019-06-26T01:44:15.877Z,79.67
2019-06-26T01:45:15.619Z,79.67
2019-06-26T01:46:15.602Z,79.57
2019-06-26T01:47:15.668Z,79.67
2019-06-26T01:48:15.569Z,79.97
2019-06-26T01:49:15.536Z,79.77
2019-06-26T01:50:15.556Z,79.97
2019-06-26T01:51:15.484Z,79.77
2019-06-26T01:52:15.466Z,80.07
2019-06-26T01:53:15.482Z,79.47
2019-06-26T01:54:15.411Z,79.77
2019-06-26T01:55:15.387Z,79.87
2019-06-26T01:56:15.359Z,80.17
2019-06-26T01:57:15.961Z,79.77
2019-06-26T01:58:15.373Z,80.07
2019-06-26T01:59:15.299Z,80.17
2019-06-26T02:00:15.295Z,80.27
2019-06-26T02:01:15.255Z,80.07
2019-06-26T02:02:15.226Z,79.97
2019-06-26T02:03:15.240Z,79.97
2019-06-26T02:04:15.799Z,80.77
2019-06-26T02:05:15.196Z,80.98
2019-06-26T02:06:15.130Z,80.68
2019-06-26T02:07:15.110Z,80.57
2019-06-26T02:08:15.083Z,81.18
2019-06-26T02:09:15.104Z,81.48
2019-06-26T02:10:15.042Z,81.32
2019-06-26T02:11:15.051Z,81.48
2019-06-26T02:12:14.989Z,81.62
2019-06-26T02:13:15.028Z,81.52
2019-06-26T02:14:29.931Z,81.48
2019-06-26T02:15:14.920Z,81.38
2019-06-26T02:16:14.896Z,81.58
2019-06-26T02:17:14.876Z,81.52
2019-06-26T02:18:14.895Z,81.48
2019-06-26T02:19:14.825Z,80.81
2019-06-26T02:20:14.800Z,80.81
2019-06-26T02:21:14.777Z,81.12
2019-06-26T02:22:14.752Z,81.32
2019-06-26T02:23:14.766Z,81.62
2019-06-26T02:24:14.708Z,81.92
2019-06-26T02:25:14.743Z,81.92
2019-06-26T02:26:14.660Z,81.92
2019-06-26T02:27:14.648Z,81.72
2019-06-26T02:28:14.618Z,81.82
2019-06-26T02:29:14.592Z,82.12
2019-06-26T02:30:14.609Z,81.92
2019-06-26T02:31:14.563Z,81.72
2019-06-26T02:32:14.524Z,81.82
2019-06-26T02:33:14.513Z,81.32
2019-06-26T02:34:14.475Z,81.72
2019-06-26T02:35:14.499Z,81.62
2019-06-26T02:36:14.494Z,81.72
2019-06-26T02:37:14.403Z,81.92
2019-06-26T02:38:14.379Z,81.92
2019-06-26T02:39:14.399Z,81.92
2019-06-26T02:40:14.372Z,82.02
2019-06-26T02:41:14.319Z,81.72
2019-06-26T02:42:14.282Z,82.42
2019-06-26T02:43:14.259Z,82.32
2019-06-26T02:44:14.239Z,82.52
2019-06-26T02:45:14.280Z,82.92
2019-06-26T02:46:14.192Z,81.92
2019-06-26T02:47:20.299Z,82.42
2019-06-26T02:48:14.154Z,81.82
2019-06-26T02:49:14.158Z,81.72
2019-06-26T02:50:14.112Z,81.82
2019-06-26T02:51:14.151Z,81.62
2019-06-26T02:52:14.065Z,81.92
2019-06-26T02:53:14.065Z,81.92
2019-06-26T02:54:14.000Z,82.02
2019-06-26T02:55:14.034Z,81.62
2019-06-26T02:56:13.953Z,82.22
2019-06-26T02:57:13.941Z,82.32
2019-06-26T02:58:13.918Z,82.02
2019-06-26T02:59:13.885Z,82.02
2019-06-26T03:00:13.921Z,82.12
2019-06-26T03:01:13.842Z,82.12
2019-06-26T03:02:13.817Z,81.92
2019-06-26T03:03:13.791Z,82.68
2019-06-26T03:04:13.764Z,82.58
2019-06-26T03:05:13.792Z,82.89
2019-06-26T03:06:13.715Z,82.38
2019-06-26T03:07:13.715Z,82.38
2019-06-26T03:08:13.683Z,82.38
2019-06-26T03:09:13.648Z,81.88
2019-06-26T03:10:13.662Z,81.78
2019-06-26T03:11:13.654Z,81.58
2019-06-26T03:12:13.575Z,81.68
2019-06-26T03:13:13.548Z,80.94
2019-06-26T03:14:13.530Z,81.24
2019-06-26T03:15:13.510Z,81.34
2019-06-26T03:16:13.523Z,81.48
2019-06-26T03:17:13.465Z,81.24
2019-06-26T03:18:13.439Z,81.54
2019-06-26T03:19:13.410Z,81.24
2019-06-26T03:20:13.386Z,80.74
2019-06-26T03:21:13.430Z,81.30
2019-06-26T03:22:13.354Z,80.83
2019-06-26T03:23:13.316Z,81.10
2019-06-26T03:24:13.293Z,80.74
2019-06-26T03:25:13.277Z,80.60
2019-06-26T03:26:13.317Z,80.43
2019-06-26T03:27:13.270Z,79.90
2019-06-26T03:28:13.199Z,79.99
2019-06-26T03:29:13.177Z,79.69
2019-06-26T03:30:13.163Z,80.10
2019-06-26T03:31:13.146Z,79.90
2019-06-26T03:32:13.155Z,80.10
2019-06-26T03:33:13.100Z,79.99
2019-06-26T03:34:13.107Z,80.10
2019-06-26T03:35:13.039Z,79.90
2019-06-26T03:36:13.054Z,80.10
2019-06-26T03:37:12.993Z,79.90
2019-06-26T03:38:12.967Z,80.26
2019-06-26T03:39:12.943Z,79.75
2019-06-26T03:40:12.931Z,79.86
2019-06-26T03:41:12.955Z,80.06
2019-06-26T03:42:12.882Z,80.06
2019-06-26T03:43:12.861Z,80.36
2019-06-26T03:44:12.830Z,80.26
2019-06-26T03:45:25.017Z,79.96
2019-06-26T03:46:12.843Z,80.22
2019-06-26T03:47:12.760Z,79.86
2019-06-26T03:48:12.735Z,79.86
2019-06-26T03:49:12.722Z,80.22
2019-06-26T03:50:12.709Z,79.72
2019-06-26T03:51:13.983Z,79.62
2019-06-26T03:52:12.650Z,79.82
2019-06-26T03:53:12.638Z,79.92
2019-06-26T03:54:12.613Z,80.12
2019-06-26T03:55:12.577Z,80.12
2019-06-26T03:56:12.594Z,79.58
2019-06-26T03:57:12.529Z,79.78
2019-06-26T03:58:12.506Z,79.62
2019-06-26T03:59:12.489Z,80.08
2019-06-26T04:00:12.508Z,80.58
2019-06-26T04:01:12.455Z,80.28
2019-06-26T04:02:12.415Z,81.18
2019-06-26T04:03:12.397Z,81.18
2019-06-26T04:04:12.591Z,80.94
2019-06-26T04:05:12.345Z,81.15
2019-06-26T04:06:12.882Z,81.24
2019-06-26T04:07:12.301Z,80.65
2019-06-26T04:08:12.278Z,80.35
2019-06-26T04:09:12.298Z,81.04
2019-06-26T04:10:12.237Z,81.24
2019-06-26T04:11:12.213Z,80.61
2019-06-26T04:12:12.189Z,80.00
2019-06-26T04:13:12.169Z,79.41
2019-06-26T04:14:12.190Z,79.36
2019-06-26T04:15:12.123Z,79.10
2019-06-26T04:16:12.101Z,78.56
2019-06-26T04:17:12.077Z,78.03
2019-06-26T04:18:12.052Z,77.83
2019-06-26T04:19:12.072Z,77.73
2019-06-26T04:20:12.024Z,77.39
2019-06-26T04:21:12.033Z,77.59
2019-06-26T04:22:11.988Z,77.25
2019-06-26T04:23:11.942Z,76.62
2019-06-26T04:24:11.948Z,75.78
2019-06-26T04:25:11.956Z,74.75
2019-06-26T04:26:11.880Z,74.11
2019-06-26T04:27:11.865Z,72.65
2019-06-26T04:28:11.881Z,71.81
2019-06-26T04:29:11.833Z,70.98
2019-06-26T04:30:11.789Z,71.02
2019-06-26T04:31:11.831Z,71.65
2019-06-26T04:32:11.756Z,72.45
2019-06-26T04:33:11.726Z,73.08
2019-06-26T04:34:12.603Z,72.98
2019-06-26T04:35:11.736Z,73.02
2019-06-26T04:36:11.704Z,74.11
2019-06-26T04:37:11.650Z,74.11
2019-06-26T04:38:11.622Z,74.28
2019-06-26T04:39:11.625Z,73.88
2019-06-26T04:40:11.623Z,74.21
2019-06-26T04:42:50.881Z,72.22
2019-06-26T04:43:50.857Z,71.92
2019-06-26T04:44:50.881Z,72.52
2019-06-26T04:45:58.219Z,72.11
2019-06-26T04:46:50.793Z,72.52
2019-06-26T04:47:50.772Z,73.01
2019-06-26T04:48:51.021Z,73.01
2019-06-26T04:49:50.769Z,72.61
2019-06-26T04:50:50.713Z,72.61
2019-06-26T04:51:50.685Z,73.11
2019-06-26T04:52:50.666Z,73.41
2019-06-26T04:53:50.679Z,73.31
2019-06-26T04:54:50.623Z,72.61
2019-06-26T04:55:50.606Z,72.91
2019-06-26T04:56:50.584Z,72.41
2019-06-26T04:57:50.630Z,72.31
2019-06-26T04:58:50.633Z,72.78
2019-06-26T04:59:50.542Z,72.28
2019-06-26T05:00:51.472Z,72.48
2019-06-26T05:01:50.529Z,73.08
2019-06-26T05:02:50.465Z,73.01
2019-06-26T05:03:50.436Z,72.58
2019-06-26T05:04:50.416Z,73.18
2019-06-26T05:05:50.405Z,73.08
2019-06-26T05:06:50.550Z,72.58
2019-06-26T05:07:53.553Z,72.38
2019-06-26T05:08:50.974Z,72.28
2019-06-26T05:09:50.360Z,72.28
2019-06-26T05:10:50.298Z,72.44
2019-06-26T05:11:50.480Z,72.38
2019-06-26T05:12:50.253Z,72.34
2019-06-26T05:13:50.275Z,72.05
2019-06-26T05:14:50.214Z,72.74
2019-06-26T05:15:50.203Z,72.25
2019-06-26T05:16:50.185Z,72.25
2019-06-26T05:17:50.245Z,72.25
2019-06-26T05:18:50.195Z,72.44
2019-06-26T05:19:50.112Z,72.55
2019-06-26T05:20:50.094Z,71.91
2019-06-26T05:21:50.069Z,70.62
2019-06-26T05:22:50.101Z,71.91
2019-06-26T05:23:50.032Z,71.91
2019-06-26T05:24:50.013Z,71.98
2019-06-26T05:25:49.992Z,70.98
2019-06-26T05:26:49.966Z,70.78
2019-06-26T05:27:49.987Z,70.78
2019-06-26T05:28:49.928Z,71.78
2019-06-26T05:29:49.918Z,71.55
2019-06-26T05:30:49.886Z,71.75
2019-06-26T05:31:49.870Z,70.75
2019-06-26T05:32:49.895Z,70.92
2019-06-26T05:33:49.827Z,70.32
2019-06-26T05:34:49.822Z,70.81
2019-06-26T05:35:49.799Z,71.51
2019-06-26T05:36:49.771Z,71.15
2019-06-26T05:37:49.798Z,70.72
2019-06-26T05:38:49.747Z,70.72
2019-06-26T05:39:49.710Z,71.61
2019-06-26T05:40:49.754Z,71.81
2019-06-26T05:41:49.676Z,71.01
2019-06-26T05:42:49.714Z,71.51
2019-06-26T05:43:49.668Z,70.62
2019-06-26T05:44:49.668Z,70.72
2019-06-26T05:45:49.623Z,69.89
2019-06-26T05:46:49.584Z,70.88
2019-06-26T05:47:49.555Z,70.88
2019-06-26T05:48:49.575Z,71.04
2019-06-26T05:49:49.512Z,70.55
2019-06-26T05:50:49.501Z,70.48
2019-06-26T05:51:49.499Z,70.55
2019-06-26T05:52:49.497Z,69.95
2019-06-26T05:53:49.438Z,69.46
2019-06-26T05:54:49.427Z,70.75
2019-06-26T05:55:49.442Z,70.75
2019-06-26T05:56:49.396Z,70.45
2019-06-26T05:57:49.364Z,70.85
2019-06-26T05:58:49.376Z,70.75
2019-06-26T05:59:49.323Z,70.65
2019-06-26T06:00:49.345Z,70.81
2019-06-26T06:01:49.334Z,70.02
2019-06-26T06:02:49.285Z,70.55
2019-06-26T06:03:49.278Z,70.42
2019-06-26T06:04:49.222Z,70.81
2019-06-26T06:05:49.214Z,70.12
2019-06-26T06:06:49.243Z,70.81
2019-06-26T06:07:49.167Z,70.72
2019-06-26T06:08:49.165Z,69.13
2019-06-26T06:09:49.128Z,69.59
2019-06-26T06:10:49.107Z,70.18
2019-06-26T06:11:49.208Z,70.38
2019-06-26T06:12:49.073Z,69.29
2019-06-26T06:13:49.050Z,68.70
2019-06-26T06:14:49.057Z,68.90
2019-06-26T06:15:49.015Z,69.16
2019-06-26T06:16:49.035Z,69.06
2019-06-26T06:17:49.554Z,69.36
2019-06-26T06:18:49.006Z,68.96
2019-06-26T06:19:48.936Z,68.17
2019-06-26T06:20:48.919Z,68.17
2019-06-26T06:21:48.984Z,67.77
2019-06-26T06:22:48.932Z,68.07
2019-06-26T06:23:48.863Z,67.94
2019-06-26T06:24:48.844Z,67.77
2019-06-26T06:25:48.883Z,67.14
2019-06-26T06:26:48.811Z,67.64
2019-06-26T06:27:48.785Z,66.25
2019-06-26T06:28:48.771Z,66.42
2019-06-26T06:29:48.760Z,66.13
2019-06-26T06:30:48.789Z,65.83
2019-06-26T06:31:48.726Z,65.53
2019-06-26T06:32:48.688Z,66.62
2019-06-26T06:33:48.675Z,65.70
2019-06-26T06:34:48.688Z,65.30
2019-06-26T06:35:48.636Z,65.80
2019-06-26T06:36:48.616Z,65.99
2019-06-26T06:37:48.653Z,65.30
2019-06-26T06:38:48.589Z,65.27
2019-06-26T06:39:48.571Z,64.78
2019-06-26T06:40:48.584Z,64.67
2019-06-26T06:41:48.523Z,63.49
2019-06-26T06:42:48.510Z,63.49
2019-06-26T06:43:48.497Z,64.08
2019-06-26T06:44:48.508Z,64.45
2019-06-26T06:45:48.460Z,64.64
2019-06-26T06:47:02.682Z,64.74
2019-06-26T06:47:48.425Z,63.46
2019-06-26T06:48:48.389Z,61.78
2019-06-26T06:49:48.429Z,62.84
2019-06-26T06:50:49.084Z,62.63
2019-06-26T06:51:48.337Z,61.75
2019-06-26T06:52:48.332Z,61.75
2019-06-26T06:53:48.309Z,62.12
2019-06-26T06:54:48.326Z,60.93
2019-06-26T06:55:48.266Z,60.24
2019-06-26T06:56:48.244Z,61.32
2019-06-26T06:57:48.227Z,61.42
2019-06-26T06:58:48.212Z,61.49
2019-06-26T06:59:48.244Z,61.00
2019-06-26T07:00:48.178Z,61.79
2019-06-26T07:01:48.153Z,60.70
2019-06-26T07:02:48.134Z,61.29
2019-06-26T07:03:48.119Z,60.70
2019-06-26T07:04:48.140Z,60.21
2019-06-26T07:05:48.079Z,61.76
2019-06-26T07:06:48.064Z,60.47
2019-06-26T07:07:48.049Z,61.07
2019-06-26T07:08:48.033Z,60.77
2019-06-26T07:09:48.051Z,61.26
2019-06-26T07:10:48.030Z,60.57
2019-06-26T07:11:47.980Z,59.88
2019-06-26T07:12:47.961Z,60.54
2019-06-26T07:13:47.941Z,60.25
2019-06-26T07:14:47.962Z,60.44
2019-06-26T07:15:47.910Z,60.25
2019-06-26T07:16:47.918Z,61.04
2019-06-26T07:17:47.875Z,59.66
2019-06-26T07:18:47.861Z,60.25
2019-06-26T07:19:47.831Z,59.23
2019-06-26T07:20:47.812Z,58.45
2019-06-26T07:21:48.160Z,58.45
2019-06-26T07:22:47.829Z,59.03
2019-06-26T07:23:47.762Z,58.94
2019-06-26T07:24:47.850Z,59.01
2019-06-26T07:25:47.727Z,59.11
2019-06-26T07:26:47.714Z,58.71
2019-06-26T07:27:47.757Z,58.12
2019-06-26T07:28:47.673Z,57.70
2019-06-26T07:29:47.667Z,58.19
2019-06-26T07:30:47.674Z,58.19
2019-06-26T07:31:47.627Z,58.19
2019-06-26T07:32:47.676Z,58.19
2019-06-26T07:33:47.607Z,58.19
2019-06-26T07:34:47.574Z,58.16
2019-06-26T07:35:47.588Z,57.60
2019-06-26T07:36:47.547Z,57.57
2019-06-26T07:37:47.517Z,57.67
2019-06-26T07:38:47.546Z,56.88
2019-06-26T07:39:47.527Z,56.95
2019-06-26T07:40:47.472Z,55.97
2019-06-26T07:41:47.454Z,55.68
2019-06-26T07:42:47.485Z,55.77
2019-06-26T07:43:47.484Z,55.58
2019-06-26T07:44:47.444Z,55.87
2019-06-26T07:45:47.383Z,54.96
2019-06-26T07:46:47.367Z,54.57
2019-06-26T07:47:47.349Z,54.08
2019-06-26T07:48:47.384Z,54.47
2019-06-26T07:49:47.320Z,54.27
2019-06-26T07:50:47.302Z,54.93
2019-06-26T07:51:47.350Z,55.13
2019-06-26T07:52:47.279Z,55.43
2019-06-26T07:53:47.657Z,54.05
2019-06-26T07:54:47.241Z,54.05
2019-06-26T07:55:47.215Z,52.97
2019-06-26T07:56:47.246Z,52.87
2019-06-26T07:57:47.180Z,52.45
2019-06-26T07:58:47.167Z,52.84
2019-06-26T07:59:47.155Z,52.84
2019-06-26T08:00:47.139Z,51.86
2019-06-26T08:01:47.196Z,51.74
2019-06-26T08:02:47.158Z,51.45
2019-06-26T08:03:47.088Z,52.42
2019-06-26T08:04:47.074Z,52.52
2019-06-26T08:05:47.050Z,52.89
2019-06-26T08:06:47.072Z,50.27
2019-06-26T08:07:47.020Z,51.91
2019-06-26T08:08:47.004Z,51.62
2019-06-26T08:09:47.013Z,52.11
2019-06-26T08:10:47.020Z,50.34
2019-06-26T08:11:46.972Z,51.81
2019-06-26T08:12:46.933Z,51.32
2019-06-26T08:13:46.917Z,51.22
2019-06-26T08:14:46.924Z,52.20
2019-06-26T08:15:46.928Z,51.89
2019-06-26T08:16:46.873Z,51.69
2019-06-26T08:17:59.987Z,50.22
2019-06-26T08:18:46.841Z,51.59
2019-06-26T08:19:46.821Z,50.39
2019-06-26T08:20:55.507Z,50.49
2019-06-26T08:21:47.015Z,51.37
2019-06-26T08:22:46.806Z,51.00
2019-06-26T08:23:46.761Z,50.39
2019-06-26T08:24:46.753Z,50.49
2019-06-26T08:25:46.771Z,50.20
2019-06-26T08:26:46.828Z,50.68
2019-06-26T08:27:46.695Z,50.39
2019-06-26T08:28:46.679Z,50.09
2019-06-26T08:29:46.717Z,50.37
2019-06-26T08:30:46.650Z,50.37
2019-06-26T08:31:46.634Z,51.25
2019-06-26T08:32:46.619Z,49.77
2019-06-26T08:33:46.599Z,49.48
2019-06-26T08:34:46.630Z,51.54
2019-06-26T08:35:46.571Z,50.73
2019-06-26T08:36:46.559Z,50.63
2019-06-26T08:37:46.544Z,50.54
2019-06-26T08:38:46.611Z,50.04
2019-06-26T08:39:46.509Z,49.46
2019-06-26T08:40:46.497Z,49.36
2019-06-26T08:41:47.109Z,49.85
2019-06-26T08:42:46.509Z,50.04
2019-06-26T08:43:46.448Z,50.54
2019-06-26T08:44:46.438Z,49.95
2019-06-26T08:45:46.415Z,49.16
2019-06-26T08:46:46.404Z,49.82
2019-06-26T08:47:46.454Z,50.12
2019-06-26T08:48:51.727Z,49.82
2019-06-26T08:49:46.360Z,48.94
2019-06-26T08:50:46.362Z,49.43
2019-06-26T08:51:46.380Z,49.82
2019-06-26T08:52:46.355Z,50.49
2019-06-26T08:53:46.306Z,49.04
2019-06-26T08:54:46.363Z,50.02
2019-06-26T08:55:46.316Z,49.31
2019-06-26T08:56:46.246Z,48.53
2019-06-26T08:57:47.116Z,48.24
2019-06-26T08:58:46.226Z,48.43
2019-06-26T08:59:46.333Z,48.50
2019-06-26T09:00:46.213Z,48.80
2019-06-26T09:01:46.223Z,48.72
2019-06-26T09:02:46.191Z,48.50
2019-06-26T09:03:46.144Z,48.99
2019-06-26T09:04:46.127Z,48.41
2019-06-26T09:05:48.402Z,47.43
2019-06-26T09:06:46.177Z,47.63
2019-06-26T09:07:46.094Z,47.14
2019-06-26T09:08:46.106Z,46.82
2019-06-26T09:09:46.102Z,46.92
2019-06-26T09:10:46.667Z,46.72
2019-06-26T09:11:46.626Z,46.92
2019-06-26T09:12:46.622Z,46.72
2019-06-26T09:13:46.621Z,46.72
2019-06-26T09:14:46.120Z,47.21
2019-06-26T09:15:49.582Z,46.70
2019-06-26T09:16:47.048Z,46.14
2019-06-26T09:17:46.618Z,46.50
2019-06-26T09:18:46.051Z,46.11
2019-06-26T09:19:45.991Z,46.50
2019-06-26T09:20:45.988Z,46.89
2019-06-26T09:21:45.915Z,47.09
2019-06-26T09:22:46.008Z,46.88
2019-06-26T09:23:45.865Z,47.28
2019-06-26T09:24:45.849Z,47.07
2019-06-26T09:25:45.826Z,46.01
2019-06-26T09:26:45.824Z,46.21
2019-06-26T09:27:45.855Z,45.23
2019-06-26T09:28:45.777Z,44.73
2019-06-26T09:29:45.767Z,45.31
2019-06-26T09:30:45.748Z,45.61
2019-06-26T09:31:45.745Z,45.51
2019-06-26T09:32:45.802Z,44.60
2019-06-26T09:33:45.710Z,44.80
2019-06-26T09:34:45.700Z,45.00
2019-06-26T09:35:45.677Z,45.00
2019-06-26T09:36:45.725Z,46.17
2019-06-26T09:37:45.673Z,45.17
2019-06-26T09:38:45.706Z,45.48
2019-06-26T09:39:46.578Z,45.29
2019-06-26T09:40:45.609Z,45.26
2019-06-26T09:41:45.632Z,43.92
2019-06-26T09:42:45.590Z,45.29
2019-06-26T09:43:45.610Z,44.02
2019-06-26T09:44:45.563Z,44.97
2019-06-26T09:45:45.553Z,44.68
2019-06-26T09:46:45.534Z,44.68
2019-06-26T09:47:45.516Z,44.78
2019-06-26T09:48:52.764Z,44.09
2019-06-26T09:49:45.496Z,44.46
2019-06-26T09:50:45.511Z,43.78
2019-06-26T09:51:45.460Z,44.66
2019-06-26T09:52:45.513Z,43.39
2019-06-26T09:53:47.437Z,43.18
2019-06-26T09:54:45.471Z,44.64
2019-06-26T09:55:45.432Z,42.49
2019-06-26T09:56:45.392Z,42.79
2019-06-26T09:57:45.371Z,42.20
2019-06-26T09:58:45.423Z,42.98
2019-06-26T09:59:45.404Z,44.15
2019-06-26T10:00:45.341Z,42.79
2019-06-26T10:01:45.376Z,43.08
2019-06-26T10:02:45.316Z,43.15
2019-06-26T10:03:45.524Z,43.08
2019-06-26T10:04:45.278Z,41.91
2019-06-26T10:05:45.275Z,42.49
2019-06-26T10:06:45.314Z,42.00
2019-06-26T10:07:45.238Z,42.40
2019-06-26T10:08:45.319Z,42.69
2019-06-26T10:09:45.209Z,42.88
2019-06-26T10:10:45.201Z,43.18
2019-06-26T10:11:45.242Z,42.79
2019-06-26T10:12:45.167Z,42.59
2019-06-26T10:13:45.157Z,43.37
2019-06-26T10:14:47.829Z,42.30
2019-06-26T10:15:45.140Z,41.81
2019-06-26T10:16:45.155Z,42.79
2019-06-26T10:17:45.098Z,42.40
2019-06-26T10:18:45.083Z,41.32
2019-06-26T10:19:45.131Z,40.03
2019-06-26T10:20:45.057Z,41.40
2019-06-26T10:21:45.041Z,40.42
2019-06-26T10:22:45.032Z,41.40
2019-06-26T10:23:45.050Z,40.13
2019-06-26T10:24:45.004Z,41.50
2019-06-26T10:25:45.053Z,41.40
2019-06-26T10:26:44.980Z,41.30
2019-06-26T10:27:44.974Z,41.40
2019-06-26T10:28:44.954Z,40.81
2019-06-26T10:29:44.947Z,39.55
2019-06-26T10:30:44.977Z,40.13
2019-06-26T10:31:44.907Z,39.75
2019-06-26T10:32:44.920Z,39.55
2019-06-26T10:33:44.885Z,39.94
2019-06-26T10:34:45.160Z,40.21
2019-06-26T10:35:45.006Z,40.11
2019-06-26T10:36:44.843Z,40.21
2019-06-26T10:37:44.827Z,39.14
2019-06-26T10:38:44.977Z,39.62
2019-06-26T10:39:44.802Z,39.43
2019-06-26T10:40:44.786Z,40.39
2019-06-26T10:41:44.824Z,40.58
2019-06-26T10:42:44.763Z,41.46
2019-06-26T10:43:44.781Z,40.97
2019-06-26T10:44:44.737Z,41.85
2019-06-26T10:45:44.722Z,39.49
2019-06-26T10:46:44.783Z,39.98
2019-06-26T10:47:44.745Z,39.98
2019-06-26T10:48:44.680Z,39.39
2019-06-26T10:49:44.673Z,39.69
2019-06-26T10:50:51.871Z,39.29
2019-06-26T10:51:44.643Z,38.91
2019-06-26T10:52:44.689Z,39.86
2019-06-26T10:53:44.616Z,39.84
2019-06-26T10:54:44.821Z,39.43
2019-06-26T10:55:45.087Z,38.48
2019-06-26T10:56:44.581Z,38.96
2019-06-26T10:57:44.622Z,39.06
2019-06-26T10:58:44.554Z,38.95
2019-06-26T10:59:44.558Z,38.17
2019-06-26T11:00:44.527Z,38.07
2019-06-26T11:01:44.566Z,37.90
2019-06-26T11:02:44.503Z,38.96
2019-06-26T11:03:44.549Z,38.65
2019-06-26T11:04:44.482Z,38.75
2019-06-26T11:05:44.466Z,37.32
2019-06-26T11:06:44.475Z,37.60
2019-06-26T11:07:44.451Z,37.98
2019-06-26T11:08:44.475Z,38.87
2019-06-26T11:09:44.427Z,39.08
2019-06-26T11:10:44.406Z,38.79
2019-06-26T11:11:44.433Z,39.57
2019-06-26T11:12:47.898Z,39.69
2019-06-26T11:13:44.398Z,39.88
2019-06-26T11:14:44.388Z,40.17
2019-06-26T11:15:44.385Z,39.69
2019-06-26T11:16:44.337Z,39.98
2019-06-26T11:17:44.320Z,39.49
2019-06-26T11:18:44.306Z,39.18
2019-06-26T11:19:44.677Z,39.08
2019-06-26T11:20:44.281Z,39.28
2019-06-26T11:21:44.276Z,38.87
2019-06-26T11:22:44.256Z,39.16
2019-06-26T11:23:44.287Z,38.75
2019-06-26T11:24:44.253Z,38.19
2019-06-26T11:25:44.681Z,39.65
2019-06-26T11:26:44.207Z,39.65
2019-06-26T11:27:44.206Z,39.06
2019-06-26T11:28:44.228Z,38.65
2019-06-26T11:29:44.198Z,39.04
2019-06-26T11:30:44.218Z,38.87
2019-06-26T11:31:44.157Z,38.39
2019-06-26T11:32:44.137Z,38.29
2019-06-26T11:33:44.122Z,38.98
2019-06-26T11:34:44.110Z,38.89
2019-06-26T11:35:44.137Z,38.98
2019-06-26T11:36:44.086Z,38.70
2019-06-26T11:37:44.074Z,39.59
2019-06-26T11:38:44.086Z,39.29
2019-06-26T11:39:44.065Z,39.39
2019-06-26T11:40:44.090Z,39.80
2019-06-26T11:41:44.025Z,39.98
2019-06-26T11:42:44.015Z,39.69
2019-06-26T11:43:44.007Z,40.17
2019-06-26T11:44:43.989Z,40.15
2019-06-26T11:45:44.036Z,39.37
2019-06-26T11:46:44.077Z,39.37
2019-06-26T11:47:45.874Z,39.67
2019-06-26T11:48:44.002Z,40.06
2019-06-26T11:49:59.034Z,39.67
2019-06-26T11:50:43.977Z,39.86
2019-06-26T11:51:43.905Z,40.15
2019-06-26T11:52:43.929Z,39.96
2019-06-26T11:53:43.873Z,39.67
2019-06-26T11:54:43.861Z,38.98
2019-06-26T11:55:43.856Z,39.08
2019-06-26T11:56:43.837Z,39.08
2019-06-26T11:57:44.238Z,39.57
2019-06-26T11:58:43.864Z,39.10
2019-06-26T11:59:43.796Z,39.78
2019-06-26T12:00:43.823Z,39.39
2019-06-26T12:01:43.772Z,39.47
2019-06-26T12:02:43.801Z,39.39
2019-06-26T12:03:44.242Z,39.96
2019-06-26T12:04:43.852Z,40.25
2019-06-26T12:05:43.722Z,38.89
2019-06-26T12:06:46.198Z,39.37
2019-06-26T12:07:43.778Z,39.57
2019-06-26T12:08:43.729Z,39.28
2019-06-26T12:09:43.692Z,39.69
2019-06-26T12:10:43.659Z,39.39
2019-06-26T12:11:43.648Z,39.69
2019-06-26T12:12:43.631Z,39.76
2019-06-26T12:13:43.660Z,39.37
2019-06-26T12:14:43.651Z,38.89
2019-06-26T12:15:43.596Z,39.69
2019-06-26T12:16:43.647Z,39.29
2019-06-26T12:17:43.613Z,39.20
2019-06-26T12:18:43.564Z,39.10
2019-06-26T12:19:43.578Z,39.98
2019-06-26T12:20:43.550Z,38.81
2019-06-26T12:21:43.517Z,40.08
2019-06-26T12:22:43.506Z,39.88
2019-06-26T12:23:43.493Z,39.51
2019-06-26T12:24:43.537Z,39.39
2019-06-26T12:25:43.468Z,39.98
2019-06-26T12:26:43.454Z,39.88
2019-06-26T12:27:43.443Z,39.59
2019-06-26T12:28:43.425Z,39.98
2019-06-26T12:29:43.479Z,39.80
2019-06-26T12:30:43.404Z,40.17
2019-06-26T12:31:43.391Z,40.17
2019-06-26T12:33:01.015Z,39.98
2019-06-26T12:33:43.409Z,40.00
2019-06-26T12:34:45.198Z,40.08
2019-06-26T12:35:43.336Z,39.70
2019-06-26T12:36:43.319Z,40.29
2019-06-26T12:37:43.355Z,41.26
2019-06-26T12:38:43.298Z,41.16
2019-06-26T12:39:43.334Z,40.75
2019-06-26T12:40:43.289Z,40.75
2019-06-26T12:41:43.266Z,39.98
2019-06-26T12:42:43.243Z,40.29
2019-06-26T12:43:43.234Z,39.88
2019-06-26T12:44:43.259Z,40.08
2019-06-26T12:45:43.243Z,40.09
2019-06-26T12:46:43.188Z,40.17
2019-06-26T12:47:43.185Z,41.44
2019-06-26T12:48:43.163Z,40.37
2019-06-26T12:49:44.131Z,40.17
2019-06-26T12:50:43.139Z,39.59
2019-06-26T12:51:43.127Z,39.78
2019-06-26T12:52:43.113Z,40.09
2019-06-26T12:53:43.095Z,41.24